sensor_id;sensor_type;location;lat;lon;timestamp;P1;P2;P0
74428;PMS5003;62860;52.134;23.714;2022-08-21T00:03:10;6;4.6;4
74428;PMS5003;62860;52.134;23.714;2022-08-21T00:08:28;5.6;5.2;4.4
74428;PMS5003;62860;52.134;23.714;2022-08-21T00:13:24;4.6;4.2;3.4
74428;PMS5003;62860;52.134;23.714;2022-08-21T00:17:52;5.2;4.2;3.4
74428;PMS5003;62860;52.134;23.714;2022-08-21T00:23:22;5.8;5.2;4.4
74428;PMS5003;62860;52.134;23.714;2022-08-21T00:28:12;5.6;5;4
74428;PMS5003;62860;52.134;23.714;2022-08-21T00:33:28;6.6;5.2;4
74428;PMS5003;62860;52.134;23.714;2022-08-21T00:38:06;5;3.8;3.6
74428;PMS5003;62860;52.134;23.714;2022-08-21T00:43:04;7;6;4.2
74428;PMS5003;62860;52.134;23.714;2022-08-21T00:48:16;5.4;4.8;4
74428;PMS5003;62860;52.134;23.714;2022-08-21T00:53:16;6.6;5.6;4
74428;PMS5003;62860;52.134;23.714;2022-08-21T00:58:12;5.6;5;4.2
74428;PMS5003;62860;52.134;23.714;2022-08-21T01:03:12;7;5.8;4.6
74428;PMS5003;62860;52.134;23.714;2022-08-21T01:08:22;5.2;5;4.4
74428;PMS5003;62860;52.134;23.714;2022-08-21T01:13:29;6.4;5.6;4.4
74428;PMS5003;62860;52.134;23.714;2022-08-21T01:18:16;7.4;5.4;4.2
74428;PMS5003;62860;52.134;23.714;2022-08-21T01:23:30;6;4.8;4.4
74428;PMS5003;62860;52.134;23.714;2022-08-21T01:28:28;7.6;5.6;4.8
74428;PMS5003;62860;52.134;23.714;2022-08-21T01:32:52;8;6.8;5.4
74428;PMS5003;62860;52.134;23.714;2022-08-21T01:37:58;7.4;6.4;5
74428;PMS5003;62860;52.134;23.714;2022-08-21T01:43:24;6.8;6.2;5.2
74428;PMS5003;62860;52.134;23.714;2022-08-21T01:48:34;7.4;6.6;5.6
74428;PMS5003;62860;52.134;23.714;2022-08-21T01:53:20;8.2;7.4;5.8
74428;PMS5003;62860;52.134;23.714;2022-08-21T01:58:26;8.2;6.8;5.2
74428;PMS5003;62860;52.134;23.714;2022-08-21T02:03:22;9.2;7.4;6
74428;PMS5003;62860;52.134;23.714;2022-08-21T02:08:10;9;7.6;5.4
74428;PMS5003;62860;52.134;23.714;2022-08-21T02:13:08;7;6.2;5.4
74428;PMS5003;62860;52.134;23.714;2022-08-21T02:18:20;9.8;8.6;7
74428;PMS5003;62860;52.134;23.714;2022-08-21T02:23:18;7.6;7.2;6
74428;PMS5003;62860;52.134;23.714;2022-08-21T02:28:11;9.2;7.8;6.6
74428;PMS5003;62860;52.134;23.714;2022-08-21T02:33:12;8.6;8.4;7
74428;PMS5003;62860;52.134;23.714;2022-08-21T02:38:33;9.4;8;6
74428;PMS5003;62860;52.134;23.714;2022-08-21T02:43:12;7;6.8;5.2
74428;PMS5003;62860;52.134;23.714;2022-08-21T02:48:19;8.2;8;6
74428;PMS5003;62860;52.134;23.714;2022-08-21T02:53:16;9.2;7.8;6.2
74428;PMS5003;62860;52.134;23.714;2022-08-21T02:58:34;10.8;8;6.5
74428;PMS5003;62860;52.134;23.714;2022-08-21T03:03:32;9.6;8;5.8
74428;PMS5003;62860;52.134;23.714;2022-08-21T03:07:52;9.8;8.6;6.4
74428;PMS5003;62860;52.134;23.714;2022-08-21T03:13:14;9.4;8;6.4
74428;PMS5003;62860;52.134;23.714;2022-08-21T03:18:04;9.4;8.4;6.8
74428;PMS5003;62860;52.134;23.714;2022-08-21T03:22:52;9.6;8.2;6.6
74428;PMS5003;62860;52.134;23.714;2022-08-21T03:27:52;10.4;8.4;6.4
74428;PMS5003;62860;52.134;23.714;2022-08-21T03:33:12;9.6;8.4;6.8
74428;PMS5003;62860;52.134;23.714;2022-08-21T03:38:20;9.6;6.6;5
74428;PMS5003;62860;52.134;23.714;2022-08-21T03:43:22;10.2;7.8;6.6
74428;PMS5003;62860;52.134;23.714;2022-08-21T03:48:03;10;8;6.2
74428;PMS5003;62860;52.134;23.714;2022-08-21T03:53:34;9.2;7.6;6.2
74428;PMS5003;62860;52.134;23.714;2022-08-21T03:58:25;11.6;9.2;7.4
74428;PMS5003;62860;52.134;23.714;2022-08-21T04:03:08;10;9.4;6.8
74428;PMS5003;62860;52.134;23.714;2022-08-21T04:07:53;9;8.2;6.4
74428;PMS5003;62860;52.134;23.714;2022-08-21T04:12:52;10.6;9;7.4
74428;PMS5003;62860;52.134;23.714;2022-08-21T04:18:32;11.2;9.6;7.4
74428;PMS5003;62860;52.134;23.714;2022-08-21T04:23:20;10.6;8.8;7
74428;PMS5003;62860;52.134;23.714;2022-08-21T04:28:32;9.2;8.6;7
74428;PMS5003;62860;52.134;23.714;2022-08-21T04:33:26;13;9.2;7.2
74428;PMS5003;62860;52.134;23.714;2022-08-21T04:38:22;10;8.2;6.8
74428;PMS5003;62860;52.134;23.714;2022-08-21T04:43:10;10.2;9.4;7.4
74428;PMS5003;62860;52.134;23.714;2022-08-21T04:48:19;11.6;9.4;6.6
74428;PMS5003;62860;52.134;23.714;2022-08-21T04:52:52;12.8;10.8;7.6
74428;PMS5003;62860;52.134;23.714;2022-08-21T04:58:13;9.2;8.8;7
74428;PMS5003;62860;52.134;23.714;2022-08-21T05:03:04;11.4;9;7.4
74428;PMS5003;62860;52.134;23.714;2022-08-21T05:08:32;9;8.6;6.6
74428;PMS5003;62860;52.134;23.714;2022-08-21T05:13:35;11.4;9.4;7.4
74428;PMS5003;62860;52.134;23.714;2022-08-21T05:18:16;10.2;8.4;6.2
74428;PMS5003;62860;52.134;23.714;2022-08-21T05:22:52;9.8;7.6;6.2
74428;PMS5003;62860;52.134;23.714;2022-08-21T05:28:34;8.4;7.8;6.2
74428;PMS5003;62860;52.134;23.714;2022-08-21T05:33:32;9.8;8.6;6.6
74428;PMS5003;62860;52.134;23.714;2022-08-21T05:37:52;9.6;8.8;6.8
74428;PMS5003;62860;52.134;23.714;2022-08-21T05:43:06;10.4;8.8;7
74428;PMS5003;62860;52.134;23.714;2022-08-21T05:48:24;8.2;7.6;6
74428;PMS5003;62860;52.134;23.714;2022-08-21T05:52:52;10.8;10.6;7.2
74428;PMS5003;62860;52.134;23.714;2022-08-21T05:57:52;10;9;7.2
74428;PMS5003;62860;52.134;23.714;2022-08-21T06:03:13;11.4;10;8.2
74428;PMS5003;62860;52.134;23.714;2022-08-21T06:08:22;11.2;9.6;7.2
74428;PMS5003;62860;52.134;23.714;2022-08-21T06:13:22;10.6;8.4;7
74428;PMS5003;62860;52.134;23.714;2022-08-21T06:18:16;9.4;8.4;6.8
74428;PMS5003;62860;52.134;23.714;2022-08-21T06:23:34;10.2;9.4;7.4
74428;PMS5003;62860;52.134;23.714;2022-08-21T06:28:24;8.8;8.4;7
74428;PMS5003;62860;52.134;23.714;2022-08-21T06:33:10;10.2;8.6;7
74428;PMS5003;62860;52.134;23.714;2022-08-21T06:38:04;10.2;9.4;7.2
74428;PMS5003;62860;52.134;23.714;2022-08-21T06:43:14;10.2;9;7.4
74428;PMS5003;62860;52.134;23.714;2022-08-21T06:48:32;9.6;8.8;6.8
74428;PMS5003;62860;52.134;23.714;2022-08-21T06:53:32;9.8;9.4;7
74428;PMS5003;62860;52.134;23.714;2022-08-21T06:58:20;8.6;7.4;6
74428;PMS5003;62860;52.134;23.714;2022-08-21T07:03:26;9.8;8.4;6.2
74428;PMS5003;62860;52.134;23.714;2022-08-21T07:08:25;8.2;6.8;5.6
74428;PMS5003;62860;52.134;23.714;2022-08-21T07:13:10;8.2;7.8;6
74428;PMS5003;62860;52.134;23.714;2022-08-21T07:18:12;7;6.4;5.2
74428;PMS5003;62860;52.134;23.714;2022-08-21T07:23:22;8.8;7.6;6.4
74428;PMS5003;62860;52.134;23.714;2022-08-21T07:28:06;7.2;6.6;5.8
74428;PMS5003;62860;52.134;23.714;2022-08-21T07:32:58;8.8;7.4;6.2
74428;PMS5003;62860;52.134;23.714;2022-08-21T07:38:14;7;6.8;5.6
74428;PMS5003;62860;52.134;23.714;2022-08-21T07:43:34;7.6;6.8;5.4
74428;PMS5003;62860;52.134;23.714;2022-08-21T07:48:24;8.2;7.6;6.2
74428;PMS5003;62860;52.134;23.714;2022-08-21T07:53:18;8;7.2;6
74428;PMS5003;62860;52.134;23.714;2022-08-21T07:58:16;8.6;7.4;5.8
74428;PMS5003;62860;52.134;23.714;2022-08-21T08:03:32;7.8;7.2;6
74428;PMS5003;62860;52.134;23.714;2022-08-21T08:08:34;6.3;5.8;5
74428;PMS5003;62860;52.134;23.714;2022-08-21T08:13:18;7;5.2;4.4
74428;PMS5003;62860;52.134;23.714;2022-08-21T08:17:52;6.2;5.8;4.6
74428;PMS5003;62860;52.134;23.714;2022-08-21T08:23:06;7;6.2;4.8
74428;PMS5003;62860;52.134;23.714;2022-08-21T08:28:18;7;5.8;4.8
74428;PMS5003;62860;52.134;23.714;2022-08-21T08:33:12;8.2;7.2;5.4
74428;PMS5003;62860;52.134;23.714;2022-08-21T08:38:15;7.6;7.4;6
74428;PMS5003;62860;52.134;23.714;2022-08-21T08:43:22;8;6.6;5.4
74428;PMS5003;62860;52.134;23.714;2022-08-21T08:49:40;8.6;7.4;6.2
74428;PMS5003;62860;52.134;23.714;2022-08-21T08:53:25;8.2;7.2;5.6
74428;PMS5003;62860;52.134;23.714;2022-08-21T08:58:29;8.4;6.8;5.8
74428;PMS5003;62860;52.134;23.714;2022-08-21T09:03:34;7.6;7;5.4
74428;PMS5003;62860;52.134;23.714;2022-08-21T09:08:15;8;7;5.4
74428;PMS5003;62860;52.134;23.714;2022-08-21T09:12:56;7.8;7.2;5.8
74428;PMS5003;62860;52.134;23.714;2022-08-21T09:19:03;8.2;7;5.8
74428;PMS5003;62860;52.134;23.714;2022-08-21T09:23:55;8.6;7.2;5.8
74428;PMS5003;62860;52.134;23.714;2022-08-21T09:28:20;10.6;9.6;8.6
74428;PMS5003;62860;52.134;23.714;2022-08-21T09:33:02;7.6;6.4;4.8
74428;PMS5003;62860;52.134;23.714;2022-08-21T09:38:25;6.6;5.2;4.2
74428;PMS5003;62860;52.134;23.714;2022-08-21T09:43:16;7.6;6;5
74428;PMS5003;62860;52.134;23.714;2022-08-21T09:48:14;7.6;6.8;5.2
74428;PMS5003;62860;52.134;23.714;2022-08-21T09:53:20;7.2;7;5
74428;PMS5003;62860;52.134;23.714;2022-08-21T09:58:04;6.8;6;4.8
74428;PMS5003;62860;52.134;23.714;2022-08-21T10:03:16;8;6.6;5
74428;PMS5003;62860;52.134;23.714;2022-08-21T10:07:52;7;6.6;5
74428;PMS5003;62860;52.134;23.714;2022-08-21T10:13:47;8.6;7.2;5.6
74428;PMS5003;62860;52.134;23.714;2022-08-21T10:18:26;7.2;6.4;4.8
74428;PMS5003;62860;52.134;23.714;2022-08-21T10:23:37;7.2;6.8;5.2
74428;PMS5003;62860;52.134;23.714;2022-08-21T10:28:07;8.6;6.6;5
74428;PMS5003;62860;52.134;23.714;2022-08-21T10:33:33;7.4;6.4;5.4
74428;PMS5003;62860;52.134;23.714;2022-08-21T10:38:38;7;6.4;4.4
74428;PMS5003;62860;52.134;23.714;2022-08-21T10:43:56;7;5.4;4.4
74428;PMS5003;62860;52.134;23.714;2022-08-21T10:48:16;6.2;5.2;4.2
74428;PMS5003;62860;52.134;23.714;2022-08-21T10:52:56;7.2;6.6;5
74428;PMS5003;62860;52.134;23.714;2022-08-21T10:58:40;6.8;6;4.8
74428;PMS5003;62860;52.134;23.714;2022-08-21T11:03:03;9;8.2;6.6
74428;PMS5003;62860;52.134;23.714;2022-08-21T11:08:15;25.4;21.8;16.4
74428;PMS5003;62860;52.134;23.714;2022-08-21T11:13:30;20.2;18.2;13.2
74428;PMS5003;62860;52.134;23.714;2022-08-21T11:18:26;14.8;13;9.8
74428;PMS5003;62860;52.134;23.714;2022-08-21T11:24:24;19.6;16.8;12
74428;PMS5003;62860;52.134;23.714;2022-08-21T11:28:32;13.2;13;10.8
74428;PMS5003;62860;52.134;23.714;2022-08-21T11:38:42;6.4;5.4;4.4
74428;PMS5003;62860;52.134;23.714;2022-08-21T11:43:10;6.4;5.8;5
74428;PMS5003;62860;52.134;23.714;2022-08-21T11:48:27;8.2;6.4;4.4
74428;PMS5003;62860;52.134;23.714;2022-08-21T11:53:51;5.2;5;3.6
74428;PMS5003;62860;52.134;23.714;2022-08-21T11:58:36;5.6;5;4
74428;PMS5003;62860;52.134;23.714;2022-08-21T12:03:31;6.4;5.4;4.4
74428;PMS5003;62860;52.134;23.714;2022-08-21T12:08:41;5;5;4
74428;PMS5003;62860;52.134;23.714;2022-08-21T12:13:24;6.4;5.6;4.8
74428;PMS5003;62860;52.134;23.714;2022-08-21T12:18:28;4.6;4.2;3.6
74428;PMS5003;62860;52.134;23.714;2022-08-21T12:23:17;4.2;3.6;3
74428;PMS5003;62860;52.134;23.714;2022-08-21T12:28:08;5.6;4.6;3.6
74428;PMS5003;62860;52.134;23.714;2022-08-21T12:32:55;3.8;3.4;3.4
74428;PMS5003;62860;52.134;23.714;2022-08-21T12:38:06;4.2;4;3.4
74428;PMS5003;62860;52.134;23.714;2022-08-21T12:43:36;4;4;3.2
74428;PMS5003;62860;52.134;23.714;2022-08-21T12:48:52;4.4;3.8;3
74428;PMS5003;62860;52.134;23.714;2022-08-21T12:53:49;4.2;4;3.4
74428;PMS5003;62860;52.134;23.714;2022-08-21T12:58:26;4.8;4.6;3.8
74428;PMS5003;62860;52.134;23.714;2022-08-21T13:03:30;4;4;3.4
74428;PMS5003;62860;52.134;23.714;2022-08-21T13:08:34;3;3;2.3
74428;PMS5003;62860;52.134;23.714;2022-08-21T13:13:16;5;3.6;3
74428;PMS5003;62860;52.134;23.714;2022-08-21T13:17:52;6;4.6;3.6
74428;PMS5003;62860;52.134;23.714;2022-08-21T13:23:21;5.6;5;3.4
74428;PMS5003;62860;52.134;23.714;2022-08-21T13:28:16;5.2;4.8;4
74428;PMS5003;62860;52.134;23.714;2022-08-21T13:33:10;5.8;4.4;3.6
74428;PMS5003;62860;52.134;23.714;2022-08-21T13:38:12;5.6;5;4
74428;PMS5003;62860;52.134;23.714;2022-08-21T13:43:25;6;5.2;4.4
74428;PMS5003;62860;52.134;23.714;2022-08-21T13:48:23;5.6;5.4;4.2
74428;PMS5003;62860;52.134;23.714;2022-08-21T13:53:22;6.2;5.4;4.4
74428;PMS5003;62860;52.134;23.714;2022-08-21T13:58:34;5.2;4.6;3.8
74428;PMS5003;62860;52.134;23.714;2022-08-21T14:03:10;6;5.6;4.4
74428;PMS5003;62860;52.134;23.714;2022-08-21T14:07:57;7;6.8;5.4
74428;PMS5003;62860;52.134;23.714;2022-08-21T14:13:45;6.2;5.2;4
74428;PMS5003;62860;52.134;23.714;2022-08-21T14:17:52;6.6;6.2;5.2
74428;PMS5003;62860;52.134;23.714;2022-08-21T14:23:32;6.8;5.6;4.6
74428;PMS5003;62860;52.134;23.714;2022-08-21T14:28:19;5.2;4.8;4.2
74428;PMS5003;62860;52.134;23.714;2022-08-21T14:33:31;5;4.4;3.4
74428;PMS5003;62860;52.134;23.714;2022-08-21T14:38:27;4.6;4.4;3.6
74428;PMS5003;62860;52.134;23.714;2022-08-21T14:43:22;6.2;5.4;4.8
74428;PMS5003;62860;52.134;23.714;2022-08-21T14:48:10;8.4;8.2;6
74428;PMS5003;62860;52.134;23.714;2022-08-21T14:53:20;7.4;6.2;5.2
74428;PMS5003;62860;52.134;23.714;2022-08-21T14:58:04;7.4;6;4.8
74428;PMS5003;62860;52.134;23.714;2022-08-21T15:03:04;5.4;5;4.4
74428;PMS5003;62860;52.134;23.714;2022-08-21T15:08:10;5.4;5.4;4.4
74428;PMS5003;62860;52.134;23.714;2022-08-21T15:13:34;5;4.6;3.8
74428;PMS5003;62860;52.134;23.714;2022-08-21T15:18:36;6.2;5.8;4.2
74428;PMS5003;62860;52.134;23.714;2022-08-21T15:23:26;6.8;5;4
74428;PMS5003;62860;52.134;23.714;2022-08-21T15:28:06;4.8;4.8;4
74428;PMS5003;62860;52.134;23.714;2022-08-21T15:33:12;5.2;5.2;4.2
74428;PMS5003;62860;52.134;23.714;2022-08-21T15:38:36;5.6;5.4;4.2
74428;PMS5003;62860;52.134;23.714;2022-08-21T15:43:46;6.6;5.4;4
74428;PMS5003;62860;52.134;23.714;2022-08-21T15:48:14;9.6;7;5.8
74428;PMS5003;62860;52.134;23.714;2022-08-21T15:53:00;5.2;5.2;4.2
74428;PMS5003;62860;52.134;23.714;2022-08-21T15:58:04;6.8;6.2;4.2
74428;PMS5003;62860;52.134;23.714;2022-08-21T16:03:13;5.8;5.2;4
74428;PMS5003;62860;52.134;23.714;2022-08-21T16:08:04;6.4;5.2;4
74428;PMS5003;62860;52.134;23.714;2022-08-21T16:13:16;7;5.2;4.2
74428;PMS5003;62860;52.134;23.714;2022-08-21T16:18:26;8.2;6.2;5
74428;PMS5003;62860;52.134;23.714;2022-08-21T16:23:36;7;5.8;4.2
74428;PMS5003;62860;52.134;23.714;2022-08-21T16:28:18;8.6;7;5.8
74428;PMS5003;62860;52.134;23.714;2022-08-21T16:33:33;8.2;7.8;5.6
74428;PMS5003;62860;52.134;23.714;2022-08-21T16:38:32;7;5.4;4.6
74428;PMS5003;62860;52.134;23.714;2022-08-21T16:43:06;9.8;7.4;6
74428;PMS5003;62860;52.134;23.714;2022-08-21T16:47:52;7.8;6.2;4.6
74428;PMS5003;62860;52.134;23.714;2022-08-21T16:53:26;6.6;5.8;4.4
74428;PMS5003;62860;52.134;23.714;2022-08-21T16:58:35;8.8;6.8;5.4
74428;PMS5003;62860;52.134;23.714;2022-08-21T17:03:16;6;6;5
74428;PMS5003;62860;52.134;23.714;2022-08-21T17:08:24;7.6;7.4;6
74428;PMS5003;62860;52.134;23.714;2022-08-21T17:13:26;4.6;4.6;4.2
74428;PMS5003;62860;52.134;23.714;2022-08-21T17:18:28;5.2;5;4
74428;PMS5003;62860;52.134;23.714;2022-08-21T17:23:05;6.2;5.4;4.2
74428;PMS5003;62860;52.134;23.714;2022-08-21T17:27:58;5;4.8;4.3
74428;PMS5003;62860;52.134;23.714;2022-08-21T17:32:58;6.5;6;4.8
74428;PMS5003;62860;52.134;23.714;2022-08-21T17:37:58;6.4;6;4.6
74428;PMS5003;62860;52.134;23.714;2022-08-21T17:43:06;6.6;5.8;5
74428;PMS5003;62860;52.134;23.714;2022-08-21T17:48:35;7.4;6.8;5.6
74428;PMS5003;62860;52.134;23.714;2022-08-21T17:53:24;14.2;11.8;8.4
74428;PMS5003;62860;52.134;23.714;2022-08-21T17:58:16;7.4;6.4;5.4
74428;PMS5003;62860;52.134;23.714;2022-08-21T18:03:23;7;6.6;5
74428;PMS5003;62860;52.134;23.714;2022-08-21T18:08:34;8;7.8;5.4
74428;PMS5003;62860;52.134;23.714;2022-08-21T18:13:36;8.8;8;6.6
74428;PMS5003;62860;52.134;23.714;2022-08-21T18:18:10;10.8;9;7
74428;PMS5003;62860;52.134;23.714;2022-08-21T18:23:06;11.4;10;7
74428;PMS5003;62860;52.134;23.714;2022-08-21T18:28:04;11.4;9.2;7.6
74428;PMS5003;62860;52.134;23.714;2022-08-21T18:33:12;11.6;9.6;7.6
74428;PMS5003;62860;52.134;23.714;2022-08-21T18:38:14;9.8;7.6;5.8
74428;PMS5003;62860;52.134;23.714;2022-08-21T18:43:14;9.6;8.8;7
74428;PMS5003;62860;52.134;23.714;2022-08-21T18:48:24;9.8;7.8;5.8
74428;PMS5003;62860;52.134;23.714;2022-08-21T18:53:34;9.4;8;6.2
74428;PMS5003;62860;52.134;23.714;2022-08-21T18:58:20;10.2;9.2;7.2
74428;PMS5003;62860;52.134;23.714;2022-08-21T19:03:36;8.8;7;6.2
74428;PMS5003;62860;52.134;23.714;2022-08-21T19:08:34;9.6;9;7.6
74428;PMS5003;62860;52.134;23.714;2022-08-21T19:13:04;10.2;9.2;6.8
74428;PMS5003;62860;52.134;23.714;2022-08-21T19:18:05;8.6;7.8;6
74428;PMS5003;62860;52.134;23.714;2022-08-21T19:23:26;16;14.4;10.6
74428;PMS5003;62860;52.134;23.714;2022-08-21T19:28:37;14.2;13.4;10
74428;PMS5003;62860;52.134;23.714;2022-08-21T19:33:12;17.4;15.6;11.6
74428;PMS5003;62860;52.134;23.714;2022-08-21T19:38:36;21;17.2;12.2
74428;PMS5003;62860;52.134;23.714;2022-08-21T19:43:24;19.2;16;12.2
74428;PMS5003;62860;52.134;23.714;2022-08-21T19:48:25;19.8;16;11.8
74428;PMS5003;62860;52.134;23.714;2022-08-21T19:52:58;16.8;14.4;11
74428;PMS5003;62860;52.134;23.714;2022-08-21T19:58:36;19.6;15.4;11
74428;PMS5003;62860;52.134;23.714;2022-08-21T20:03:22;17.6;15;11.2
74428;PMS5003;62860;52.134;23.714;2022-08-21T20:08:21;17.2;16;11.2
74428;PMS5003;62860;52.134;23.714;2022-08-21T20:12:52;20;17.6;12.2
74428;PMS5003;62860;52.134;23.714;2022-08-21T20:18:28;16.6;15.2;10.4
74428;PMS5003;62860;52.134;23.714;2022-08-21T20:23:36;15.4;14;10.6
74428;PMS5003;62860;52.134;23.714;2022-08-21T20:28:16;16.8;13.4;10.6
74428;PMS5003;62860;52.134;23.714;2022-08-21T20:33:02;16.8;14.6;10.8
74428;PMS5003;62860;52.134;23.714;2022-08-21T20:38:36;16.6;15.2;11.2
74428;PMS5003;62860;52.134;23.714;2022-08-21T20:43:35;14.6;13.2;10.4
74428;PMS5003;62860;52.134;23.714;2022-08-21T20:48:29;16.4;14;10.6
74428;PMS5003;62860;52.134;23.714;2022-08-21T20:52:55;25.8;22;15
74428;PMS5003;62860;52.134;23.714;2022-08-21T20:58:05;33;27.4;17
74428;PMS5003;62860;52.134;23.714;2022-08-21T21:03:16;15.2;12.2;10
74428;PMS5003;62860;52.134;23.714;2022-08-21T21:08:04;14.2;13;10.4
74428;PMS5003;62860;52.134;23.714;2022-08-21T21:13:17;15;12.4;9.4
74428;PMS5003;62860;52.134;23.714;2022-08-21T21:18:17;16.2;13.2;9.2
74428;PMS5003;62860;52.134;23.714;2022-08-21T21:23:29;13.6;12.4;9.2
74428;PMS5003;62860;52.134;23.714;2022-08-21T21:28:06;14.4;11.6;8.6
74428;PMS5003;62860;52.134;23.714;2022-08-21T21:33:32;12;10.4;8.6
74428;PMS5003;62860;52.134;23.714;2022-08-21T21:38:30;10.4;9.4;7.4
74428;PMS5003;62860;52.134;23.714;2022-08-21T21:42:57;12.4;11.6;8.4
74428;PMS5003;62860;52.134;23.714;2022-08-21T21:48:23;10.6;9.4;7.6
74428;PMS5003;62860;52.134;23.714;2022-08-21T21:58:55;11.4;10.2;7.8
74428;PMS5003;62860;52.134;23.714;2022-08-21T22:03:33;11.6;10.4;8.8
74428;PMS5003;62860;52.134;23.714;2022-08-21T22:08:38;10.8;10.2;8.4
74428;PMS5003;62860;52.134;23.714;2022-08-21T22:14:40;12;10;8
74428;PMS5003;62860;52.134;23.714;2022-08-21T22:18:27;10.4;9.6;8.2
74428;PMS5003;62860;52.134;23.714;2022-08-21T22:23:16;10;9.2;7.2
74428;PMS5003;62860;52.134;23.714;2022-08-21T22:28:20;10.4;9.2;7.4
74428;PMS5003;62860;52.134;23.714;2022-08-21T22:32:52;10.4;10;8
74428;PMS5003;62860;52.134;23.714;2022-08-21T22:38:13;12;10.8;8.4
74428;PMS5003;62860;52.134;23.714;2022-08-21T22:42:57;12.6;10.8;8.4
74428;PMS5003;62860;52.134;23.714;2022-08-21T22:48:32;12.4;11;8.4
74428;PMS5003;62860;52.134;23.714;2022-08-21T22:53:31;11.6;10.4;8
74428;PMS5003;62860;52.134;23.714;2022-08-21T22:58:19;10.4;10.2;8.4
74428;PMS5003;62860;52.134;23.714;2022-08-21T23:03:21;12.6;11.2;9.6
74428;PMS5003;62860;52.134;23.714;2022-08-21T23:08:30;12.2;9.6;8
74428;PMS5003;62860;52.134;23.714;2022-08-21T23:13:37;10;9.6;7.4
74428;PMS5003;62860;52.134;23.714;2022-08-21T23:18:39;11.6;10.2;8.4
74428;PMS5003;62860;52.134;23.714;2022-08-21T23:23:09;11.2;10.4;8.2
74428;PMS5003;62860;52.134;23.714;2022-08-21T23:28:16;13;10.6;8.4
74428;PMS5003;62860;52.134;23.714;2022-08-21T23:33:08;12;11;8.8
74428;PMS5003;62860;52.134;23.714;2022-08-21T23:38:14;12.6;9.8;8.2
74428;PMS5003;62860;52.134;23.714;2022-08-21T23:43:02;11.4;10;7.6
74428;PMS5003;62860;52.134;23.714;2022-08-21T23:53:28;12.8;12;9.8
74428;PMS5003;62860;52.134;23.714;2022-08-21T23:58:37;13;11;8.8
